Contract 0xe0ad6182fbf954ff695f680495393c59b3f72846

 
Ad
Ad
Txn Hash Method
Block
From
To
Value [Txn Fee]
0x6116fbf9d2592b3f0cb2c2cdb8bb1873730d71e1fbab3c1bdd7600c6b9cbede5Sell188195072021-09-06 18:42:0286 days 17 hrs ago0x778f6b920f7b96b0a76b1711b495e429b932e2c3 IN  0xe0ad6182fbf954ff695f680495393c59b3f728460 MATIC0.00091061775
0x50a2375fbbea758631578a4b5503dbda9f460137a5cfa77c70d5b2ddb352994fBuy187669892021-09-05 7:26:4188 days 4 hrs ago0x0000004aeba5281a38f203ebb935e255e4b463b8 IN  0xe0ad6182fbf954ff695f680495393c59b3f728460 MATIC0.002651165
0xfe72e6e0ef15e5cc76a2e576e6d8d38ffab0448f78671555443727d0fdab1713Sell187184452021-09-03 23:55:3889 days 12 hrs ago0x778f6b920f7b96b0a76b1711b495e429b932e2c3 IN  0xe0ad6182fbf954ff695f680495393c59b3f728460 MATIC0.000455308875
0x431b6f233b0b73a4c5dd088578b4c0eaf9ecf9e4ab23c8c89e86a2db699ea937Sell187165982021-09-03 22:44:1289 days 13 hrs ago0x778f6b920f7b96b0a76b1711b495e429b932e2c3 IN  0xe0ad6182fbf954ff695f680495393c59b3f728460 MATIC0.00455308875
0xe99b7e81d832cb57f1ac5eded5841f00c8b26aec88bfd7d9acebb6540ef3ff10Sell187130952021-09-03 20:24:3789 days 15 hrs ago0x778f6b920f7b96b0a76b1711b495e429b932e2c3 IN  0xe0ad6182fbf954ff695f680495393c59b3f728460 MATIC0.0018212355
0x492362eca7a748d3580033593d09637e9e43f0536df0534346840f21115564f4Sell187099342021-09-03 18:13:5689 days 17 hrs ago0x778f6b920f7b96b0a76b1711b495e429b932e2c3 IN  0xe0ad6182fbf954ff695f680495393c59b3f728460 MATIC0.0091061775
0xf810a648604226e601546cf601e8f31640bccebb4f00db5b667fd09b7d6c1da6Sell187083802021-09-03 17:07:3289 days 19 hrs ago0xb5fc4d5388952dc7a798fe784fe659f9a20e5ca4 IN  0xe0ad6182fbf954ff695f680495393c59b3f728460 MATIC0.0018211095
0x43a48225ef0f698c145ef2e74cd2685b832e4e516e29868ff0a88d57aa8c841fSell187083312021-09-03 17:05:5089 days 19 hrs ago0x0000004aeba5281a38f203ebb935e255e4b463b8 IN  0xe0ad6182fbf954ff695f680495393c59b3f728460 MATIC0.00266002
0x2df2eb443e1624d73dd12ab2cea986ec13431ab80f584547c5615f91c4566810Sell187083302021-09-03 17:05:4889 days 19 hrs ago0xb5fc4d5388952dc7a798fe784fe659f9a20e5ca4 IN  0xe0ad6182fbf954ff695f680495393c59b3f728460 MATIC0.00455308875
0x95c350ff4a9e007e118625b5a8b081eb0a872cef8698a02cded3957cd91a8b80Buy187082882021-09-03 17:04:2489 days 19 hrs ago0x0000004aeba5281a38f203ebb935e255e4b463b8 IN  0xe0ad6182fbf954ff695f680495393c59b3f728460 MATIC0.002747571
0xaf531eaad7e46d2afbbd5530db05c1ee9da214b2432a697c83962a28544b4bcfSell187082832021-09-03 17:03:5489 days 19 hrs ago0xb5fc4d5388952dc7a798fe784fe659f9a20e5ca4 IN  0xe0ad6182fbf954ff695f680495393c59b3f728460 MATIC0.0091061775
0xbc0e7b99e887c7775199a6956ac7919eef68a6d27e683e5dcf63de043582dc06Buy187082572021-09-03 17:01:1889 days 19 hrs ago0xb5fc4d5388952dc7a798fe784fe659f9a20e5ca4 IN  0xe0ad6182fbf954ff695f680495393c59b3f728460 MATIC0.00497566125
0xafd396ba64ec29233606a0c150c027846adf86bfa12470cf6528ee8672a55c9cBuy187082522021-09-03 17:00:4889 days 19 hrs ago0xb5fc4d5388952dc7a798fe784fe659f9a20e5ca4 IN  0xe0ad6182fbf954ff695f680495393c59b3f728460 MATIC0.0099519525
0x9b5f9ecf0b9b5696e64fd12d45d092e1fec27d9181e3f52b069de670d3a2f3b4Buy187082472021-09-03 17:00:1889 days 19 hrs ago0x0000004aeba5281a38f203ebb935e255e4b463b8 IN  0xe0ad6182fbf954ff695f680495393c59b3f728460 MATIC0.010425195
0x71f06e9f1ea46962a6d4877d81ec22ae29d627bb6248e9b2b0743cf184bc736dBuy187082412021-09-03 16:59:4289 days 19 hrs ago0xb5fc4d5388952dc7a798fe784fe659f9a20e5ca4 IN  0xe0ad6182fbf954ff695f680495393c59b3f728460 MATIC0.0099519525
0xaa1c72e08f891240dc303aa00a35817ab75bddb1066863a9fb276799fb22e761Buy187082412021-09-03 16:59:4289 days 19 hrs ago0x0000004aeba5281a38f203ebb935e255e4b463b8 IN  0xe0ad6182fbf954ff695f680495393c59b3f728460 MATIC0.010804293
0x16e59771bd420358b4f13e1ad068cc1f4b153015f7c4e85fd317bc2a50f4dd7fBuy187070162021-09-03 16:14:1589 days 19 hrs ago0x0000004aeba5281a38f203ebb935e255e4b463b8 IN  0xe0ad6182fbf954ff695f680495393c59b3f728460 MATIC0.011365035
0x12bf9177b4d97e66252311faf61bea5904d5ad38751de6e3ed77b8b4e0fa2c19Sell187022892021-09-03 13:07:4689 days 23 hrs ago0xb5fc4d5388952dc7a798fe784fe659f9a20e5ca4 IN  0xe0ad6182fbf954ff695f680495393c59b3f728460 MATIC0.018212355
0x89d1f5cab6ae5bc6b56a77733e0149e775f09cbbda237d5f76c789663760e86cSell187022662021-09-03 13:06:4689 days 23 hrs ago0xb5fc4d5388952dc7a798fe784fe659f9a20e5ca4 IN  0xe0ad6182fbf954ff695f680495393c59b3f728460 MATIC0.018212355
0xbc1b62d77012bad1704aa9a070954408803481c6271bf888b66f5376cf500556Buy186990992021-09-03 11:05:1490 days 1 hr ago0xb5fc4d5388952dc7a798fe784fe659f9a20e5ca4 IN  0xe0ad6182fbf954ff695f680495393c59b3f728460 MATIC0.00099519525
0xbc97c4a782617d401717bcafa537fac9ddf1b53419d5f6ef3b0fe413af9e32ceBuy186990252021-09-03 11:02:4290 days 1 hr ago0xb5fc4d5388952dc7a798fe784fe659f9a20e5ca4 IN  0xe0ad6182fbf954ff695f680495393c59b3f728460 MATIC0.00099519525
0x052a80f6f735883cced443df23cdf5d36fbcf6df1a7977bc9b42a46ca2a0d1daBuy186988702021-09-03 10:57:2090 days 1 hr ago0xb5fc4d5388952dc7a798fe784fe659f9a20e5ca4 IN  0xe0ad6182fbf954ff695f680495393c59b3f728460 MATIC0.00099519525
0xe388b92010941bbddc28404ea21372476c971f64e575c2e00a79897880d8170fSell186966882021-09-03 9:32:4590 days 2 hrs ago0xb5fc4d5388952dc7a798fe784fe659f9a20e5ca4 IN  0xe0ad6182fbf954ff695f680495393c59b3f728460 MATIC0.001365926625
0xb6583e9496f93d61872379100cb30f78f6742ddc5a08d77e02c0668486aec204Sell186966782021-09-03 9:32:2590 days 2 hrs ago0xb5fc4d5388952dc7a798fe784fe659f9a20e5ca4 IN  0xe0ad6182fbf954ff695f680495393c59b3f728460 MATIC0.00091061775
0xf338d123944e642f9d8b8ada6a70f7bc20ed5653e78e6bdb9b60020b8e64c090Sell186963392021-09-03 9:20:4290 days 2 hrs ago0xb5fc4d5388952dc7a798fe784fe659f9a20e5ca4 IN  0xe0ad6182fbf954ff695f680495393c59b3f728460 MATIC0.00091061775
[ Download CSV Export 
Latest 1 internal transaction
Parent Txn Hash Block From To Value
0x4a51b965dc6045f64b612d9da44539ee9dd841c11dc92fc7700c945ef2189bda177293102021-08-07 20:08:32116 days 16 hrs ago 0x8b9805a2f595b6705e74f7310829f2d299d21522  Contract Creation0 MATIC
[ Download CSV Export 
Loading
Are you the contract creator? Verify and Publish your contract source code today!
This contract was created by the contract code at 0x8b9805a2f595b6705e74f7310829f2d299d21522
Note: We also found another 2096 contracts with exact matching byte codes

Decompile ByteCode
0x363d3d373d3d3d363d730b8a853ad2e8984a429f36dabc75f0cbdd5534f85af43d82803e903d91602b57fd5bf3 
Block Transaction Gas Used Reward
Age Block Fee Address BC Fee Address Voting Power Jailed Incoming
Block Uncle Number Difficulty Gas Used Reward
Loading
Loading
Make sure to use the "Vote Down" button for any spammy posts, and the "Vote Up" for interesting conversations.